Norrskar — SGFD — position and weather

sailwx.info

Track history (hours):
 
Tides and Currents Weather Stations Pressure Air Temp Water Temp Dewpoint Dewpoint Depression Visibility Wind Speed Wind Dir Waves Ship Positions

Norrskar

Last reported at 2016-Jul-24 19:33 UTC. Time now 2016-Jul-24 20:30 UTC.
Position N 59°20' E 018°05'.

Length 35 m.

Type: Ship. MMSI: 265522430.

Date/timePositionNaut miles runAvg speedWind from/ knotsBaromVisibWave heightAir tempDewpointWater temp
2016-Jul-24 19:33N 59°20' E 018°05'0 0.0
2016-Jul-24 18:33N 59°20' E 018°05'0 0.0
2016-Jul-24 08:34N 59°19' E 018°05'0 0.3
2016-Jul-24 07:33N 59°20' E 018°05'0 0.0
2016-Jul-24 06:33N 59°20' E 018°05'0 0.0
2016-Jul-24 05:34N 59°20' E 018°05'0 0.0
2016-Jul-24 04:33N 59°20' E 018°05'0 0.0
2016-Jul-24 03:33N 59°20' E 018°05'0 0.0
2016-Jul-24 02:34N 59°20' E 018°05'0 0.0
2016-Jul-24 01:33N 59°20' E 018°05'0 0.0
2016-Jul-24 00:33N 59°20' E 018°05'0 0.0
2016-Jul-23 23:33N 59°20' E 018°05'0 0.0
2016-Jul-23 22:33N 59°20' E 018°05'0 0.0
2016-Jul-23 21:33N 59°20' E 018°05'0 0.0
2016-Jul-23 20:33N 59°20' E 018°05'0 0.0
2016-Jul-23 19:33N 59°20' E 018°05'0 0.0
2016-Jul-23 18:33N 59°20' E 018°05'1 0.1
2016-Jul-23 08:33N 59°19' E 018°06'1 0.8
2016-Jul-23 07:33N 59°20' E 018°05'0 0.0
2016-Jul-23 06:33N 59°20' E 018°05'0 0.0
2016-Jul-23 04:33N 59°20' E 018°05'0 0.0
2016-Jul-23 03:33N 59°20' E 018°05'0 0.0
2016-Jul-23 02:33N 59°20' E 018°05'0 0.0
2016-Jul-23 01:33N 59°20' E 018°05'0 0.0
2016-Jul-23 00:33N 59°20' E 018°05'0 0.0
2016-Jul-22 23:33N 59°20' E 018°05'0 0.0
2016-Jul-22 22:33N 59°20' E 018°05'0 0.0
2016-Jul-22 21:33N 59°20' E 018°05'0 0.0
2016-Jul-22 20:33N 59°20' E 018°05'1 0.3
2016-Jul-22 16:14N 59°19' E 018°07'1 2.1
2016-Jul-22 15:33N 59°20' E 018°05'1 0.2
2016-Jul-22 09:07N 59°19' E 018°07'1 2.1
2016-Jul-22 08:33N 59°20' E 018°05'0 0.0
2016-Jul-22 07:33N 59°20' E 018°05'0 0.0
2016-Jul-22 05:34N 59°20' E 018°05'0 0.0
2016-Jul-22 04:33N 59°20' E 018°05'0 0.0
2016-Jul-22 03:34N 59°20' E 018°05'0 0.0
2016-Jul-22 02:33N 59°20' E 018°05'0 0.0
2016-Jul-22 01:33N 59°20' E 018°05'0 0.0
2016-Jul-22 00:34N 59°20' E 018°05'0 0.0
2016-Jul-21 23:33N 59°20' E 018°05'0 0.0
2016-Jul-21 22:34N 59°20' E 018°05'0 0.0
2016-Jul-21 21:34N 59°20' E 018°05'0 0.0
2016-Jul-21 20:34N 59°20' E 018°05'1 0.2
2016-Jul-21 16:09N 59°19' E 018°06'1 1.8
2016-Jul-21 15:33N 59°20' E 018°05'3 0.6
2016-Jul-21 09:31N 59°20' E 018°11'3 3.6
2016-Jul-21 08:33N 59°20' E 018°05'0 0.0
2016-Jul-21 07:34N 59°20' E 018°05'0 0.0
2016-Jul-21 06:33N 59°20' E 018°05'0 0.0
2016-Jul-21 05:34N 59°20' E 018°05'0 0.0
2016-Jul-21 04:33N 59°20' E 018°05'0 0.0
2016-Jul-21 03:33N 59°20' E 018°05'0 0.0
2016-Jul-21 02:34N 59°20' E 018°05'0 0.0
2016-Jul-21 01:34N 59°20' E 018°05'0 0.0
2016-Jul-21 00:33N 59°20' E 018°05'0 0.0
2016-Jul-20 23:34N 59°20' E 018°05'0 0.0
2016-Jul-20 22:34N 59°20' E 018°05'0 0.0
2016-Jul-20 21:33N 59°20' E 018°05'0 0.0
2016-Jul-20 20:34N 59°20' E 018°05'3 2.3
2016-Jul-20 19:28N 59°19' E 018°10'2 0.6
2016-Jul-20 16:30N 59°20' E 018°12'4 4.2
2016-Jul-20 15:33N 59°20' E 018°05'4 0.6
2016-Jul-20 09:16N 59°20' E 018°12'4 5.0
2016-Jul-20 08:33N 59°20' E 018°05'0 0.0
2016-Jul-20 07:34N 59°20' E 018°05'0 0.0
2016-Jul-20 06:34N 59°20' E 018°05'0 0.0
2016-Jul-20 05:33N 59°20' E 018°05'0 0.0
2016-Jul-20 04:34N 59°20' E 018°05'0 0.0
2016-Jul-20 03:33N 59°20' E 018°05'0 0.0
2016-Jul-20 02:34N 59°20' E 018°05'0 0.0
2016-Jul-20 01:33N 59°20' E 018°05'0 0.0
2016-Jul-20 00:33N 59°20' E 018°05'0 0.0
2016-Jul-19 23:33N 59°20' E 018°05'0 0.0
2016-Jul-19 22:33N 59°20' E 018°05'0 0.0
2016-Jul-19 21:33N 59°20' E 018°05'0 0.0
2016-Jul-19 20:33N 59°20' E 018°05'4 0.7
2016-Jul-19 15:15N 59°20' E 018°12'4 5.5
2016-Jul-19 14:33N 59°20' E 018°05'0 0.5
2016-Jul-19 13:33N 59°19' E 018°05'3 1.0
2016-Jul-19 10:17N 59°20' E 018°12'4 5.0
2016-Jul-19 09:33N 59°20' E 018°05'0 0.0
2016-Jul-19 08:33N 59°20' E 018°05'0 0.0
2016-Jul-19 07:33N 59°20' E 018°05'0 0.0
2016-Jul-19 04:22N 59°20' E 018°05'0 0.0
2016-Jul-19 03:33N 59°20' E 018°05'0 0.0
2016-Jul-19 02:33N 59°20' E 018°05'0 0.0
2016-Jul-19 01:33N 59°20' E 018°05'0 0.0
2016-Jul-19 00:33N 59°20' E 018°05'0 0.0
2016-Jul-18 23:33N 59°20' E 018°05'0 0.0
2016-Jul-18 22:32N 59°20' E 018°05'0 0.0
2016-Jul-18 21:33N 59°20' E 018°05'0 0.0
2016-Jul-18 20:33N 59°20' E 018°05'6 1.2
2016-Jul-18 15:31N 59°22' E 018°16'6 6.1
2016-Jul-18 14:33N 59°20' E 018°05'3 2.5
2016-Jul-18 13:33N 59°19' E 018°10'1 0.4
2016-Jul-18 10:26N 59°20' E 018°12'4 4.0
2016-Jul-18 09:33N 59°20' E 018°05'0 0.0
2016-Jul-18 08:33N 59°20' E 018°05'0 0.0
2016-Jul-18 07:31N 59°20' E 018°05'0 0.0
2016-Jul-18 06:33N 59°20' E 018°05'0 0.0
2016-Jul-18 05:33N 59°20' E 018°05'0 0.0
2016-Jul-18 04:33N 59°20' E 018°05'0 0.0
2016-Jul-18 03:33N 59°20' E 018°05'0 0.0
2016-Jul-18 02:32N 59°20' E 018°05'0 0.0
2016-Jul-18 01:33N 59°20' E 018°05'0 0.0
2016-Jul-17 23:22N 59°20' E 018°05'0 0.0
2016-Jul-17 22:33N 59°20' E 018°05'0 0.0
2016-Jul-17 20:30N 59°20' E 018°05'0 0.0
2016-Jul-17 19:33N 59°20' E 018°05'0 0.0
2016-Jul-17 18:33N 59°20' E 018°05'3 2.4
2016-Jul-17 17:30N 59°19' E 018°09'2 0.3
2016-Jul-17 08:33N 59°19' E 018°05'0 0.3
2016-Jul-17 07:33N 59°20' E 018°05'0 0.0
2016-Jul-17 06:33N 59°20' E 018°05'0 0.0
2016-Jul-17 04:33N 59°20' E 018°05'0 0.0
2016-Jul-17 03:33N 59°20' E 018°05'0 0.0
2016-Jul-17 02:33N 59°20' E 018°05'0 0.0
2016-Jul-17 01:33N 59°20' E 018°05'0 0.0
2016-Jul-17 00:33N 59°20' E 018°05'0 0.0
2016-Jul-16 23:33N 59°20' E 018°05'0 0.0
2016-Jul-16 22:33N 59°20' E 018°05'0 0.0
2016-Jul-16 21:33N 59°20' E 018°05'0 0.0
2016-Jul-16 20:22N 59°20' E 018°05'0 0.0
2016-Jul-16 19:33N 59°20' E 018°05'0 0.0
2016-Jul-16 18:33N 59°20' E 018°05'2 2.1
2016-Jul-16 17:32N 59°19' E 018°09'2 0.2
2016-Jul-16 08:33N 59°20' E 018°05'0 0.1
2016-Jul-16 07:33N 59°20' E 018°05'0 0.0
2016-Jul-16 06:33N 59°20' E 018°05'0 0.0
2016-Jul-16 04:33N 59°20' E 018°05'0 0.0
2016-Jul-16 03:33N 59°20' E 018°05'0 0.0
2016-Jul-16 02:33N 59°20' E 018°05'0 0.0
2016-Jul-16 01:33N 59°20' E 018°05'0 0.0
2016-Jul-16 00:33N 59°20' E 018°05'0 0.0
2016-Jul-15 23:33N 59°20' E 018°05'0 0.0
2016-Jul-15 22:33N 59°20' E 018°05'0 0.0
2016-Jul-15 21:33N 59°20' E 018°05'0 0.0
2016-Jul-15 20:33N 59°20' E 018°05'3 2.8
2016-Jul-15 19:30N 59°19' E 018°10'1 0.4
2016-Jul-15 16:30N 59°20' E 018°12'4 4.2
2016-Jul-15 15:33N 59°20' E 018°05'3 0.6
2016-Jul-15 09:24N 59°20' E 018°11'3 4.1
2016-Jul-15 08:33N 59°20' E 018°05'0 0.0
2016-Jul-15 07:33N 59°20' E 018°05'0 0.0
2016-Jul-15 06:33N 59°20' E 018°05'0 0.0
2016-Jul-15 05:33N 59°20' E 018°05'0 0.0
2016-Jul-15 04:33N 59°20' E 018°05'0 0.0
2016-Jul-15 03:33N 59°20' E 018°05'0 0.0
2016-Jul-15 02:33N 59°20' E 018°05'0 0.0
2016-Jul-15 01:33N 59°20' E 018°05'0 0.0
2016-Jul-15 00:33N 59°20' E 018°05'0 0.0
2016-Jul-14 23:33N 59°20' E 018°05'0 0.0
2016-Jul-14 22:33N 59°20' E 018°05'0 0.0
2016-Jul-14 21:33N 59°20' E 018°05'0 0.0
2016-Jul-14 20:33N 59°20' E 018°05'  
Track history (hours):
 
Tides and Currents Weather Stations Pressure Air Temp Water Temp Dewpoint Dewpoint Depression Visibility Wind Speed Wind Dir Waves Ship Positions

Norrskar

Last reported at 2016-Jul-24 19:33 UTC. Time now 2016-Jul-24 20:30 UTC.
Position N 59°20' E 018°05'.

Length 35 m.

Type: Ship. MMSI: 265522430.

Date/timePositionNaut miles runAvg speedWind from/ knotsBaromVisibWave heightAir tempDewpointWater temp
2016-Jul-24 19:33N 59°20' E 018°05'0 0.0
2016-Jul-24 18:33N 59°20' E 018°05'0 0.0
2016-Jul-24 08:34N 59°19' E 018°05'0 0.3
2016-Jul-24 07:33N 59°20' E 018°05'0 0.0
2016-Jul-24 06:33N 59°20' E 018°05'0 0.0
2016-Jul-24 05:34N 59°20' E 018°05'0 0.0
2016-Jul-24 04:33N 59°20' E 018°05'0 0.0
2016-Jul-24 03:33N 59°20' E 018°05'0 0.0
2016-Jul-24 02:34N 59°20' E 018°05'0 0.0
2016-Jul-24 01:33N 59°20' E 018°05'0 0.0
2016-Jul-24 00:33N 59°20' E 018°05'0 0.0
2016-Jul-23 23:33N 59°20' E 018°05'0 0.0
2016-Jul-23 22:33N 59°20' E 018°05'0 0.0
2016-Jul-23 21:33N 59°20' E 018°05'0 0.0
2016-Jul-23 20:33N 59°20' E 018°05'0 0.0
2016-Jul-23 19:33N 59°20' E 018°05'0 0.0
2016-Jul-23 18:33N 59°20' E 018°05'1 0.1
2016-Jul-23 08:33N 59°19' E 018°06'1 0.8
2016-Jul-23 07:33N 59°20' E 018°05'0 0.0
2016-Jul-23 06:33N 59°20' E 018°05'0 0.0
2016-Jul-23 04:33N 59°20' E 018°05'0 0.0
2016-Jul-23 03:33N 59°20' E 018°05'0 0.0
2016-Jul-23 02:33N 59°20' E 018°05'0 0.0
2016-Jul-23 01:33N 59°20' E 018°05'0 0.0
2016-Jul-23 00:33N 59°20' E 018°05'0 0.0
2016-Jul-22 23:33N 59°20' E 018°05'0 0.0
2016-Jul-22 22:33N 59°20' E 018°05'0 0.0
2016-Jul-22 21:33N 59°20' E 018°05'0 0.0
2016-Jul-22 20:33N 59°20' E 018°05'1 0.3
2016-Jul-22 16:14N 59°19' E 018°07'1 2.1
2016-Jul-22 15:33N 59°20' E 018°05'1 0.2
2016-Jul-22 09:07N 59°19' E 018°07'1 2.1
2016-Jul-22 08:33N 59°20' E 018°05'0 0.0
2016-Jul-22 07:33N 59°20' E 018°05'0 0.0
2016-Jul-22 05:34N 59°20' E 018°05'0 0.0
2016-Jul-22 04:33N 59°20' E 018°05'0 0.0
2016-Jul-22 03:34N 59°20' E 018°05'0 0.0
2016-Jul-22 02:33N 59°20' E 018°05'0 0.0
2016-Jul-22 01:33N 59°20' E 018°05'0 0.0
2016-Jul-22 00:34N 59°20' E 018°05'0 0.0
2016-Jul-21 23:33N 59°20' E 018°05'0 0.0
2016-Jul-21 22:34N 59°20' E 018°05'0 0.0
2016-Jul-21 21:34N 59°20' E 018°05'0 0.0
2016-Jul-21 20:34N 59°20' E 018°05'1 0.2
2016-Jul-21 16:09N 59°19' E 018°06'1 1.8
2016-Jul-21 15:33N 59°20' E 018°05'3 0.6
2016-Jul-21 09:31N 59°20' E 018°11'3 3.6
2016-Jul-21 08:33N 59°20' E 018°05'0 0.0
2016-Jul-21 07:34N 59°20' E 018°05'0 0.0
2016-Jul-21 06:33N 59°20' E 018°05'0 0.0
2016-Jul-21 05:34N 59°20' E 018°05'0 0.0
2016-Jul-21 04:33N 59°20' E 018°05'0 0.0
2016-Jul-21 03:33N 59°20' E 018°05'0 0.0
2016-Jul-21 02:34N 59°20' E 018°05'0 0.0
2016-Jul-21 01:34N 59°20' E 018°05'0 0.0
2016-Jul-21 00:33N 59°20' E 018°05'0 0.0
2016-Jul-20 23:34N 59°20' E 018°05'0 0.0
2016-Jul-20 22:34N 59°20' E 018°05'0 0.0
2016-Jul-20 21:33N 59°20' E 018°05'0 0.0
2016-Jul-20 20:34N 59°20' E 018°05'3 2.3
2016-Jul-20 19:28N 59°19' E 018°10'2 0.6
2016-Jul-20 16:30N 59°20' E 018°12'4 4.2
2016-Jul-20 15:33N 59°20' E 018°05'4 0.6
2016-Jul-20 09:16N 59°20' E 018°12'4 5.0
2016-Jul-20 08:33N 59°20' E 018°05'0 0.0
2016-Jul-20 07:34N 59°20' E 018°05'0 0.0
2016-Jul-20 06:34N 59°20' E 018°05'0 0.0
2016-Jul-20 05:33N 59°20' E 018°05'0 0.0
2016-Jul-20 04:34N 59°20' E 018°05'0 0.0
2016-Jul-20 03:33N 59°20' E 018°05'0 0.0
2016-Jul-20 02:34N 59°20' E 018°05'0 0.0
2016-Jul-20 01:33N 59°20' E 018°05'0 0.0
2016-Jul-20 00:33N 59°20' E 018°05'0 0.0
2016-Jul-19 23:33N 59°20' E 018°05'0 0.0
2016-Jul-19 22:33N 59°20' E 018°05'0 0.0
2016-Jul-19 21:33N 59°20' E 018°05'0 0.0
2016-Jul-19 20:33N 59°20' E 018°05'4 0.7
2016-Jul-19 15:15N 59°20' E 018°12'4 5.5
2016-Jul-19 14:33N 59°20' E 018°05'0 0.5
2016-Jul-19 13:33N 59°19' E 018°05'3 1.0
2016-Jul-19 10:17N 59°20' E 018°12'4 5.0
2016-Jul-19 09:33N 59°20' E 018°05'0 0.0
2016-Jul-19 08:33N 59°20' E 018°05'0 0.0
2016-Jul-19 07:33N 59°20' E 018°05'0 0.0
2016-Jul-19 04:22N 59°20' E 018°05'0 0.0
2016-Jul-19 03:33N 59°20' E 018°05'0 0.0
2016-Jul-19 02:33N 59°20' E 018°05'0 0.0
2016-Jul-19 01:33N 59°20' E 018°05'0 0.0
2016-Jul-19 00:33N 59°20' E 018°05'0 0.0
2016-Jul-18 23:33N 59°20' E 018°05'0 0.0
2016-Jul-18 22:32N 59°20' E 018°05'0 0.0
2016-Jul-18 21:33N 59°20' E 018°05'0 0.0
2016-Jul-18 20:33N 59°20' E 018°05'6 1.2
2016-Jul-18 15:31N 59°22' E 018°16'6 6.1
2016-Jul-18 14:33N 59°20' E 018°05'3 2.5
2016-Jul-18 13:33N 59°19' E 018°10'1 0.4
2016-Jul-18 10:26N 59°20' E 018°12'4 4.0
2016-Jul-18 09:33N 59°20' E 018°05'0 0.0
2016-Jul-18 08:33N 59°20' E 018°05'0 0.0
2016-Jul-18 07:31N 59°20' E 018°05'0 0.0
2016-Jul-18 06:33N 59°20' E 018°05'0 0.0
2016-Jul-18 05:33N 59°20' E 018°05'0 0.0
2016-Jul-18 04:33N 59°20' E 018°05'0 0.0
2016-Jul-18 03:33N 59°20' E 018°05'0 0.0
2016-Jul-18 02:32N 59°20' E 018°05'0 0.0
2016-Jul-18 01:33N 59°20' E 018°05'0 0.0
2016-Jul-17 23:22N 59°20' E 018°05'0 0.0
2016-Jul-17 22:33N 59°20' E 018°05'0 0.0
2016-Jul-17 20:30N 59°20' E 018°05'0 0.0
2016-Jul-17 19:33N 59°20' E 018°05'0 0.0
2016-Jul-17 18:33N 59°20' E 018°05'3 2.4
2016-Jul-17 17:30N 59°19' E 018°09'2 0.3
2016-Jul-17 08:33N 59°19' E 018°05'0 0.3
2016-Jul-17 07:33N 59°20' E 018°05'0 0.0
2016-Jul-17 06:33N 59°20' E 018°05'0 0.0
2016-Jul-17 04:33N 59°20' E 018°05'0 0.0
2016-Jul-17 03:33N 59°20' E 018°05'0 0.0
2016-Jul-17 02:33N 59°20' E 018°05'0 0.0
2016-Jul-17 01:33N 59°20' E 018°05'0 0.0
2016-Jul-17 00:33N 59°20' E 018°05'0 0.0
2016-Jul-16 23:33N 59°20' E 018°05'0 0.0
2016-Jul-16 22:33N 59°20' E 018°05'0 0.0
2016-Jul-16 21:33N 59°20' E 018°05'0 0.0
2016-Jul-16 20:22N 59°20' E 018°05'0 0.0
2016-Jul-16 19:33N 59°20' E 018°05'0 0.0
2016-Jul-16 18:33N 59°20' E 018°05'2 2.1
2016-Jul-16 17:32N 59°19' E 018°09'2 0.2
2016-Jul-16 08:33N 59°20' E 018°05'0 0.1
2016-Jul-16 07:33N 59°20' E 018°05'0 0.0
2016-Jul-16 06:33N 59°20' E 018°05'0 0.0
2016-Jul-16 04:33N 59°20' E 018°05'0 0.0
2016-Jul-16 03:33N 59°20' E 018°05'0 0.0
2016-Jul-16 02:33N 59°20' E 018°05'0 0.0
2016-Jul-16 01:33N 59°20' E 018°05'0 0.0
2016-Jul-16 00:33N 59°20' E 018°05'0 0.0
2016-Jul-15 23:33N 59°20' E 018°05'0 0.0
2016-Jul-15 22:33N 59°20' E 018°05'0 0.0
2016-Jul-15 21:33N 59°20' E 018°05'0 0.0
2016-Jul-15 20:33N 59°20' E 018°05'3 2.8
2016-Jul-15 19:30N 59°19' E 018°10'1 0.4
2016-Jul-15 16:30N 59°20' E 018°12'4 4.2
2016-Jul-15 15:33N 59°20' E 018°05'3 0.6
2016-Jul-15 09:24N 59°20' E 018°11'3 4.1
2016-Jul-15 08:33N 59°20' E 018°05'0 0.0
2016-Jul-15 07:33N 59°20' E 018°05'0 0.0
2016-Jul-15 06:33N 59°20' E 018°05'0 0.0
2016-Jul-15 05:33N 59°20' E 018°05'0 0.0
2016-Jul-15 04:33N 59°20' E 018°05'0 0.0
2016-Jul-15 03:33N 59°20' E 018°05'0 0.0
2016-Jul-15 02:33N 59°20' E 018°05'0 0.0
2016-Jul-15 01:33N 59°20' E 018°05'0 0.0
2016-Jul-15 00:33N 59°20' E 018°05'0 0.0
2016-Jul-14 23:33N 59°20' E 018°05'0 0.0
2016-Jul-14 22:33N 59°20' E 018°05'0 0.0
2016-Jul-14 21:33N 59°20' E 018°05'0 0.0
2016-Jul-14 20:33N 59°20' E 018°05'  

Dump ship's entire track history